createdAt,value
2017-09-23T00:01:47.052Z,95238.97
2017-09-23T00:04:14.415Z,95234.23
2017-09-23T00:06:41.649Z,95233.67
2017-09-23T00:09:08.933Z,95237.64
2017-09-23T00:11:36.134Z,95240.84
2017-09-23T00:14:03.567Z,95253.13
2017-09-23T00:16:33.468Z,95240.10
2017-09-23T00:19:00.815Z,95252.36
2017-09-23T00:21:28.091Z,95253.32
2017-09-23T00:23:55.360Z,95245.95
2017-09-23T00:26:22.724Z,95246.50
2017-09-23T00:28:50.068Z,95244.80
2017-09-23T00:31:17.302Z,95244.80
2017-09-23T00:33:44.756Z,95247.64
2017-09-23T00:36:11.957Z,95244.82
2017-09-23T00:38:39.296Z,95243.50
2017-09-23T00:41:06.552Z,95244.05
2017-09-23T00:43:33.770Z,95237.06
2017-09-23T00:46:01.005Z,95248.78
2017-09-23T00:48:28.239Z,95253.30
2017-09-23T00:50:55.442Z,95247.25
2017-09-23T00:53:22.818Z,95252.54
2017-09-23T00:55:50.039Z,95249.72
2017-09-23T00:58:17.304Z,95247.08
2017-09-23T01:00:44.569Z,95251.03
2017-09-23T01:03:11.875Z,95253.67
2017-09-23T01:05:40.582Z,95247.27
2017-09-23T01:08:07.890Z,95254.81
2017-09-23T01:10:35.220Z,95249.53
2017-09-23T01:13:02.440Z,95253.28
2017-09-23T01:15:29.721Z,95251.79
2017-09-23T01:17:56.957Z,95255.19
2017-09-23T01:20:24.244Z,95252.16
2017-09-23T01:22:51.477Z,95249.70
2017-09-23T01:25:20.869Z,95253.66
2017-09-23T01:30:21.863Z,95250.28
2017-09-23T01:32:49.079Z,95251.60
2017-09-23T01:35:16.347Z,95251.03
2017-09-23T01:37:43.722Z,95243.66
2017-09-23T01:40:10.967Z,95238.75
2017-09-23T01:42:38.306Z,95238.75
2017-09-23T01:45:05.528Z,95246.30
2017-09-23T01:47:32.786Z,95253.67
2017-09-23T01:50:00.086Z,95253.85
2017-09-23T01:52:27.345Z,95252.53
2017-09-23T01:54:54.539Z,95252.35
2017-09-23T01:57:22.036Z,95258.95
2017-09-23T01:59:49.304Z,95259.90
2017-09-23T02:02:16.977Z,95265.56
2017-09-23T02:04:44.272Z,95259.13
2017-09-23T02:07:11.844Z,95265.38
2017-09-23T02:09:39.096Z,95258.78
2017-09-23T02:12:06.394Z,95262.36
2017-09-23T02:14:33.950Z,95265.94
2017-09-23T02:17:02.659Z,95266.88
2017-09-23T02:19:30.089Z,95259.50
2017-09-23T02:21:57.418Z,95257.25
2017-09-23T02:24:24.653Z,95264.44
2017-09-23T02:26:51.883Z,95263.47
2017-09-23T02:29:19.159Z,95258.39
2017-09-23T02:31:46.387Z,95265.38
2017-09-23T02:34:15.918Z,95256.68
2017-09-23T02:36:43.294Z,95255.74
2017-09-23T02:39:10.545Z,95257.06
2017-09-23T02:41:37.866Z,95254.42
2017-09-23T02:44:05.214Z,95254.03
2017-09-23T02:46:32.455Z,95253.66
2017-09-23T02:48:59.710Z,95247.98
2017-09-23T02:51:26.976Z,95254.59
2017-09-23T02:53:54.205Z,95258.94
2017-09-23T02:56:21.478Z,95259.14
2017-09-23T02:58:48.766Z,95265.75
2017-09-23T03:01:15.986Z,95267.81
2017-09-23T03:03:43.441Z,95270.09
2017-09-23T03:06:10.736Z,95282.93
2017-09-23T03:08:37.975Z,95269.72
2017-09-23T03:11:05.270Z,95270.09
2017-09-23T03:13:32.532Z,95275.73
2017-09-23T03:15:59.817Z,95278.03
2017-09-23T03:18:27.111Z,95278.59
2017-09-23T03:20:58.982Z,95275.73
2017-09-23T03:23:26.328Z,95276.88
2017-09-23T03:25:53.606Z,95273.30
2017-09-23T03:28:20.828Z,95276.50
2017-09-23T03:30:48.109Z,95276.33
2017-09-23T03:33:15.360Z,95273.85
2017-09-23T03:35:42.640Z,95270.09
2017-09-23T03:38:09.907Z,95271.59
2017-09-23T03:40:37.218Z,95269.89
2017-09-23T03:43:04.477Z,95268.95
2017-09-23T03:45:31.728Z,95273.47
2017-09-23T03:48:06.200Z,95274.23
2017-09-23T03:50:33.455Z,95267.83
2017-09-23T03:53:00.699Z,95270.47
2017-09-23T03:55:28.018Z,95268.19
2017-09-23T03:57:56.344Z,95269.89
2017-09-23T04:00:24.247Z,95265.17
2017-09-23T04:02:53.549Z,95270.47
2017-09-23T04:05:20.871Z,95270.84
2017-09-23T04:07:48.127Z,95269.70
2017-09-23T04:10:15.463Z,95267.83
2017-09-23T04:12:42.703Z,95272.14
2017-09-23T04:15:09.980Z,95270.09
2017-09-23T04:17:37.236Z,95268.38
2017-09-23T04:20:04.588Z,95274.79
2017-09-23T04:22:31.916Z,95275.37
2017-09-23T04:24:59.148Z,95270.64
2017-09-23T04:27:26.348Z,95275.55
2017-09-23T04:29:53.620Z,95275.16
2017-09-23T04:32:20.871Z,95286.12
2017-09-23T04:34:54.832Z,95282.36
2017-09-23T04:37:22.087Z,95282.74
2017-09-23T04:39:49.465Z,95279.72
2017-09-23T04:42:16.652Z,95281.03
2017-09-23T04:44:43.919Z,95283.67
2017-09-23T04:47:11.184Z,95281.03
2017-09-23T04:49:38.404Z,95286.70
2017-09-23T04:52:05.708Z,95286.70
2017-09-23T04:54:33.025Z,95296.13
2017-09-23T04:57:00.395Z,95300.86
2017-09-23T04:59:29.514Z,95303.88
2017-09-23T05:01:57.501Z,95303.88
2017-09-23T05:04:24.741Z,95308.78
2017-09-23T05:06:51.982Z,95307.85
2017-09-23T05:09:19.306Z,95311.43
2017-09-23T05:11:46.535Z,95310.49
2017-09-23T05:14:14.445Z,95305.20
2017-09-23T05:16:41.732Z,95313.69
2017-09-23T05:19:08.969Z,95308.02
2017-09-23T05:21:36.245Z,95314.63
2017-09-23T05:24:03.498Z,95310.28
2017-09-23T05:26:30.816Z,95308.22
2017-09-23T05:28:58.050Z,95313.30
2017-09-23T05:31:25.365Z,95314.83
2017-09-23T05:33:52.704Z,95318.59
2017-09-23T05:36:19.949Z,95326.35
2017-09-23T05:38:47.216Z,95324.64
2017-09-23T05:41:14.477Z,95329.16
2017-09-23T05:43:41.757Z,95324.81
2017-09-23T05:46:09.031Z,95322.00
2017-09-23T05:48:36.334Z,95321.23
2017-09-23T05:51:03.589Z,95328.40
2017-09-23T05:53:30.867Z,95327.66
2017-09-23T05:55:58.106Z,95330.69
2017-09-23T05:58:30.249Z,95330.48
2017-09-23T06:00:57.755Z,95332.19
2017-09-23T06:03:24.994Z,95332.19
2017-09-23T06:05:52.259Z,95335.95
2017-09-23T06:08:19.557Z,95339.36
2017-09-23T06:10:46.788Z,95344.27
2017-09-23T06:13:14.288Z,95340.50
2017-09-23T06:20:48.434Z,95347.84
2017-09-23T06:23:16.344Z,95342.39
2017-09-23T06:25:44.609Z,95337.28
2017-09-23T06:28:12.055Z,95338.98
2017-09-23T06:35:47.089Z,95342.78
2017-09-23T06:38:14.883Z,95342.58
2017-09-23T06:40:42.213Z,95343.89
2017-09-23T06:43:10.541Z,95343.72
2017-09-23T06:45:40.705Z,95339.77
2017-09-23T06:48:08.249Z,95345.22
2017-09-23T06:50:35.675Z,95347.69
2017-09-23T07:49:47.148Z,95392.48
2017-09-23T07:52:14.641Z,95395.31
2017-09-23T07:54:42.030Z,95393.81
2017-09-23T07:57:11.124Z,95397.20
2017-09-23T07:59:38.997Z,95394.77
2017-09-23T08:02:07.912Z,95400.62
2017-09-23T08:07:11.737Z,95386.47
2017-09-23T08:09:42.978Z,95393.27
2017-09-23T08:12:12.256Z,95387.22
2017-09-23T08:14:41.211Z,95387.03
2017-09-23T08:17:09.283Z,95389.13
2017-09-23T08:19:40.010Z,95386.84
2017-09-23T08:22:08.358Z,95397.47
2017-09-23T08:24:37.807Z,95400.13
2017-09-23T08:27:06.106Z,95398.43
2017-09-23T08:29:33.318Z,95401.47
2017-09-23T08:32:00.760Z,95398.23
2017-09-23T08:34:28.047Z,95397.86
2017-09-23T08:36:55.273Z,95404.10
2017-09-23T08:39:22.534Z,95404.87
2017-09-23T08:41:49.725Z,95409.23
2017-09-23T08:44:17.168Z,95408.66
2017-09-23T08:46:44.458Z,95404.31
2017-09-23T08:49:11.790Z,95398.27
2017-09-23T08:51:39.706Z,95389.57
2017-09-23T08:54:06.999Z,95393.38
2017-09-23T09:01:45.028Z,95396.78
2017-09-23T09:04:12.173Z,95402.47
2017-09-23T09:06:39.376Z,95395.47
2017-09-23T09:09:06.584Z,95386.02
2017-09-23T09:11:33.753Z,95382.99
2017-09-23T09:14:01.009Z,95390.18
2017-09-23T09:16:28.294Z,95387.72
2017-09-23T09:18:55.460Z,95387.35
2017-09-23T09:21:22.995Z,95383.57
2017-09-23T09:23:51.301Z,95385.65
2017-09-23T09:26:18.523Z,95388.10
2017-09-23T09:28:45.785Z,95385.47
2017-09-23T10:20:17.885Z,95370.55
2017-09-23T10:25:18.327Z,95361.83
2017-09-23T10:27:45.657Z,95365.98
2017-09-23T11:14:34.601Z,95358.53
2017-09-23T11:17:01.762Z,95354.38
2017-09-23T11:19:28.930Z,95352.67
2017-09-23T11:21:56.176Z,95352.28
2017-09-23T11:24:23.327Z,95347.34
2017-09-23T11:26:50.869Z,95344.52
2017-09-23T11:29:24.679Z,95340.33
2017-09-23T11:31:51.946Z,95339.95
2017-09-23T11:34:19.143Z,95349.05
2017-09-23T11:36:46.365Z,95344.69
2017-09-23T11:39:13.647Z,95336.91
2017-09-23T11:41:40.927Z,95337.85
2017-09-23T11:44:08.169Z,95338.41
2017-09-23T11:46:35.377Z,95341.45
2017-09-23T11:49:02.526Z,95333.88
2017-09-23T11:51:29.825Z,95344.09
2017-09-23T11:53:57.110Z,95342.38
2017-09-23T11:56:24.856Z,95338.41
2017-09-23T11:58:52.486Z,95337.46
2017-09-23T12:01:19.702Z,95338.97
2017-09-23T12:03:52.433Z,95344.27
2017-09-23T12:06:19.731Z,95337.43
2017-09-23T12:08:46.955Z,95339.70
2017-09-23T12:11:14.182Z,95341.61
2017-09-23T12:13:41.366Z,95340.48
2017-09-23T12:16:08.652Z,95337.45
2017-09-23T12:18:36.019Z,95339.34
2017-09-23T12:21:07.833Z,95337.63
2017-09-23T12:23:35.284Z,95339.34
2017-09-23T12:26:03.456Z,95332.70
2017-09-23T12:28:31.587Z,95332.88
2017-09-23T12:30:58.892Z,95335.33
2017-09-23T12:33:27.220Z,95329.08
2017-09-23T12:35:54.835Z,95333.05
2017-09-23T12:38:22.176Z,95325.27
2017-09-23T12:40:49.968Z,95335.70
2017-09-23T12:43:17.721Z,95326.21
2017-09-23T12:45:44.929Z,95322.79
2017-09-23T12:48:12.088Z,95325.64
2017-09-23T12:50:39.294Z,95321.08
2017-09-23T12:53:06.470Z,95325.82
2017-09-23T12:55:33.666Z,95320.31
2017-09-23T12:58:00.889Z,95323.16
2017-09-23T13:00:28.146Z,95329.20
2017-09-23T13:02:55.473Z,95322.39
2017-09-23T13:05:22.674Z,95326.38
2017-09-23T13:07:50.033Z,95322.57
2017-09-23T13:10:18.545Z,95319.73
2017-09-23T13:15:18.166Z,95316.70
2017-09-23T13:17:45.599Z,95309.91
2017-09-23T13:20:15.206Z,95311.23
2017-09-23T13:22:44.618Z,95305.75
2017-09-23T13:25:15.045Z,95312.95
2017-09-23T13:27:44.625Z,95307.47
2017-09-23T13:30:14.678Z,95305.59
2017-09-23T13:32:44.330Z,95302.55
2017-09-23T13:37:46.061Z,95310.69
2017-09-23T13:40:13.318Z,95302.55
2017-09-23T13:42:40.684Z,95307.48
2017-09-23T13:45:07.943Z,95305.59
2017-09-23T13:47:40.707Z,95311.84
2017-09-23T13:50:07.975Z,95310.52
2017-09-23T13:52:35.202Z,95314.88
2017-09-23T13:55:02.388Z,95313.73
2017-09-23T13:57:29.627Z,95311.45
2017-09-23T13:59:56.812Z,95305.00
2017-09-23T14:02:24.086Z,95312.22
2017-09-23T14:04:51.334Z,95315.81
2017-09-23T14:07:20.165Z,95308.80
2017-09-23T14:09:47.385Z,95311.08
2017-09-23T14:48:18.312Z,95316.98
2017-09-23T14:50:45.570Z,95316.42
2017-09-23T14:53:12.739Z,95317.36
2017-09-23T14:55:39.999Z,95316.40
2017-09-23T14:58:10.792Z,95312.80
2017-09-23T15:00:38.025Z,95321.14
2017-09-23T15:03:05.239Z,95328.54
2017-09-23T15:05:32.437Z,95322.68
2017-09-23T15:07:59.685Z,95325.72
2017-09-23T15:10:29.544Z,95324.77
2017-09-23T15:12:56.816Z,95325.16
2017-09-23T15:15:24.132Z,95327.42
2017-09-23T15:17:51.386Z,95330.46
2017-09-23T15:20:18.586Z,95335.20
2017-09-23T15:22:45.816Z,95331.61
2017-09-23T15:25:13.046Z,95332.77
2017-09-23T15:27:40.326Z,95335.59
2017-09-23T15:30:08.648Z,95339.01
2017-09-23T15:32:35.815Z,95331.26
2017-09-23T15:35:03.078Z,95326.73
2017-09-23T15:37:30.349Z,95327.67
2017-09-23T15:39:57.530Z,95319.55
2017-09-23T15:42:24.734Z,95316.69
2017-09-23T15:44:51.933Z,95321.25
2017-09-23T15:47:19.146Z,95325.99
2017-09-23T15:49:46.402Z,95327.88
2017-09-23T15:52:13.622Z,95325.23
2017-09-23T15:54:40.899Z,95331.67
2017-09-23T15:57:08.069Z,95333.38
2017-09-23T15:59:35.283Z,95337.16
2017-09-23T16:02:02.456Z,95339.24
2017-09-23T16:04:29.634Z,95336.42
2017-09-23T16:06:56.901Z,95331.88
2017-09-23T16:09:24.125Z,95334.15
2017-09-23T16:11:51.950Z,95339.06
2017-09-23T16:14:19.194Z,95332.65
2017-09-23T16:16:46.377Z,95328.67
2017-09-23T16:19:13.783Z,95333.77
2017-09-23T16:21:40.988Z,95338.51
2017-09-23T16:24:08.210Z,95337.39
2017-09-23T16:26:35.369Z,95342.69
2017-09-23T16:29:02.630Z,95341.36
2017-09-23T16:31:29.891Z,95336.83
2017-09-23T16:33:57.041Z,95333.41
2017-09-23T16:36:24.268Z,95333.23
2017-09-23T16:38:51.469Z,95339.86
2017-09-23T16:41:18.655Z,95338.70
2017-09-23T16:43:46.179Z,95337.97
2017-09-23T16:46:13.354Z,95342.50
2017-09-23T16:48:40.523Z,95339.47
2017-09-23T16:51:07.765Z,95346.30
2017-09-23T16:53:34.934Z,95348.95
2017-09-23T16:56:02.161Z,95353.10
2017-09-23T16:58:29.368Z,95351.22
2017-09-23T17:00:56.651Z,95356.89
2017-09-23T17:03:23.830Z,95358.98
2017-09-23T17:05:57.379Z,95354.63
2017-09-23T17:08:24.549Z,95361.63
2017-09-23T17:10:51.785Z,95366.55
2017-09-23T17:13:19.337Z,95362.02
2017-09-23T17:18:20.383Z,95371.87
2017-09-23T17:20:47.609Z,95377.55
2017-09-23T17:23:14.828Z,95375.45
2017-09-23T17:25:42.096Z,95380.96
2017-09-23T17:28:09.361Z,95382.08
2017-09-23T17:30:36.536Z,95386.64
2017-09-23T17:33:03.815Z,95386.05
2017-09-23T17:40:36.003Z,95391.16
2017-09-23T17:43:04.681Z,95384.92
2017-09-23T17:58:16.043Z,95373.57
2017-09-23T18:00:46.016Z,95365.66
2017-09-23T18:06:08.193Z,95369.41
2017-09-23T18:08:35.522Z,95373.56
2017-09-23T18:11:02.765Z,95372.23
2017-09-23T18:13:29.972Z,95377.73
2017-09-23T18:19:00.018Z,95375.84
2017-09-23T18:21:27.294Z,95375.08
2017-09-23T18:23:54.566Z,95370.92
2017-09-23T18:28:55.045Z,95369.41
2017-09-23T18:33:55.591Z,95371.84
2017-09-23T18:38:55.060Z,95378.28
2017-09-23T18:46:29.898Z,95373.57
2017-09-23T19:06:39.448Z,95370.72
2017-09-23T19:09:06.719Z,95376.22
2017-09-23T19:11:39.862Z,95364.48
2017-09-23T19:14:07.137Z,95372.42
2017-09-23T19:16:34.382Z,95375.83
2017-09-23T19:19:01.609Z,95374.14
2017-09-23T19:21:28.912Z,95379.99
2017-09-23T19:23:56.188Z,95371.66
2017-09-23T19:26:23.446Z,95372.80
2017-09-23T19:28:50.778Z,95371.66
2017-09-23T19:31:18.019Z,95377.15
2017-09-23T19:33:45.273Z,95370.91
2017-09-23T19:36:12.528Z,95374.50
2017-09-23T19:38:39.881Z,95382.05
2017-09-23T19:41:07.136Z,95386.78
2017-09-23T19:43:34.407Z,95385.66
2017-09-23T19:46:01.644Z,95384.71
2017-09-23T19:48:28.865Z,95386.98
2017-09-23T19:50:56.116Z,95389.06
2017-09-23T19:53:23.469Z,95390.00
2017-09-23T19:55:50.753Z,95391.70
2017-09-23T19:58:18.027Z,95388.88
2017-09-23T20:03:18.214Z,95403.03
2017-09-23T20:05:45.510Z,95401.88
2017-09-23T20:08:12.808Z,95398.11
2017-09-23T20:10:40.112Z,95400.75
2017-09-23T20:13:07.459Z,95407.56
2017-09-23T20:15:34.676Z,95406.42
2017-09-23T20:18:01.915Z,95407.56
2017-09-23T20:20:29.180Z,95413.41
2017-09-23T20:22:56.499Z,95421.94
2017-09-23T20:25:23.778Z,95429.10
2017-09-23T20:27:51.149Z,95428.92
2017-09-23T20:30:18.388Z,95429.27
2017-09-23T20:32:45.692Z,95426.64
2017-09-23T20:35:12.952Z,95430.02
2017-09-23T20:40:13.414Z,95422.66
2017-09-23T20:42:40.660Z,95422.27
2017-09-23T20:45:07.901Z,95422.65
2017-09-23T20:47:35.157Z,95424.91
2017-09-23T21:05:15.922Z,95435.86
2017-09-23T21:07:43.206Z,95430.39
2017-09-23T21:10:10.459Z,95422.83
2017-09-23T21:12:37.748Z,95423.94
2017-09-23T21:15:05.163Z,95427.17
2017-09-23T21:17:32.396Z,95429.43
2017-09-23T21:20:05.239Z,95438.13
2017-09-23T21:22:32.567Z,95435.65
2017-09-23T21:24:59.754Z,95433.76
2017-09-23T21:27:27.044Z,95433.58
2017-09-23T21:29:54.315Z,95426.75
2017-09-23T21:32:21.543Z,95419.41
2017-09-23T21:34:53.894Z,95420.16
2017-09-23T21:37:21.224Z,95420.11
2017-09-23T21:39:48.471Z,95423.88
2017-09-23T21:42:15.637Z,95417.84
2017-09-23T21:44:42.941Z,95428.21
2017-09-23T21:47:10.153Z,95424.24
2017-09-23T21:49:37.475Z,95423.30
2017-09-23T21:52:04.691Z,95422.55
2017-09-23T21:54:31.915Z,95423.31
2017-09-23T21:56:59.131Z,95423.31
2017-09-23T21:59:26.485Z,95424.42
2017-09-23T22:01:53.687Z,95430.84
2017-09-23T22:04:20.893Z,95430.66
2017-09-23T22:06:48.170Z,95431.98
2017-09-23T22:09:15.339Z,95428.39
2017-09-23T22:11:42.538Z,95426.67
2017-09-23T22:14:09.750Z,95432.52
2017-09-23T22:16:37.014Z,95429.13
2017-09-23T22:19:04.219Z,95429.30
2017-09-23T22:34:11.139Z,95420.80
2017-09-23T22:39:11.778Z,95419.47
2017-09-23T22:41:39.423Z,95417.38
2017-09-23T22:44:06.651Z,95421.16
2017-09-23T22:46:34.007Z,95416.04
2017-09-23T22:49:01.357Z,95419.27
2017-09-23T22:51:28.620Z,95421.14
2017-09-23T22:53:55.864Z,95422.28
2017-09-23T22:56:23.106Z,95415.11
2017-09-23T22:58:50.370Z,95403.00
2017-09-23T23:01:18.567Z,95401.11
2017-09-23T23:03:45.824Z,95405.83
2017-09-23T23:06:13.064Z,95409.23
2017-09-23T23:08:40.309Z,95407.91
2017-09-23T23:11:07.525Z,95406.20
2017-09-23T23:13:34.769Z,95405.25
2017-09-23T23:16:02.056Z,95407.34
2017-09-23T23:18:29.291Z,95420.16
2017-09-23T23:20:56.537Z,95417.52
2017-09-23T23:23:23.800Z,95427.52
2017-09-23T23:25:51.108Z,95419.19
2017-09-23T23:28:18.614Z,95424.09
2017-09-23T23:30:45.877Z,95426.00
2017-09-23T23:33:13.158Z,95424.84
2017-09-23T23:35:40.381Z,95419.76
2017-09-23T23:38:07.567Z,95424.48
2017-09-23T23:40:34.806Z,95422.38
2017-09-23T23:43:02.024Z,95427.48
2017-09-23T23:45:29.323Z,95439.38
2017-09-23T23:47:56.526Z,95439.55
2017-09-23T23:50:23.783Z,95436.34
2017-09-23T23:52:52.108Z,95441.05
2017-09-23T23:55:19.348Z,95435.20
2017-09-23T23:57:46.663Z,95437.45
